Wetterdaten: Woche 22.08.16 - 28.08.16 (KW34)
Datum Zeit Temp. A. Temp. A. max Feuchte A. Luftdruck Regen Wind Richtung Sonnenschein ET UV Solar Taupunkt Windben
22.08.2016 00:00 12,0 C 12,1 C 84 % 1025,5 hPa 0,0 mm 5,5 km/h (1 Bft) S 0,00 h 0,000 mm 0,0 UV-I 0 W/m 9,5 C 8,3 km/h (2 Bft)
22.08.2016 01:00 11,8 C 11,8 C 86 % 1025,8 hPa 0,0 mm 4,1 km/h (1 Bft) S 0,00 h 0,025 mm 0,0 UV-I 0 W/m 9,4 C 6,6 km/h (2 Bft)
22.08.2016 02:00 11,4 C 11,4 C 87 % 1025,6 hPa 0,0 mm 3,1 km/h (1 Bft) S 0,00 h 0,026 mm 0,0 UV-I 0 W/m 9,3 C 5,3 km/h (1 Bft)
22.08.2016 03:00 11,4 C 11,4 C 85 % 1025,5 hPa 0,0 mm 3,2 km/h (1 Bft) S 0,00 h 0,025 mm 0,0 UV-I 0 W/m 9,0 C 5,3 km/h (1 Bft)
22.08.2016 04:00 10,7 C 10,7 C 90 % 1025,6 hPa 0,0 mm 0,7 km/h (0 Bft) S 0,00 h 0,026 mm 0,0 UV-I 0 W/m 9,1 C 1,5 km/h (1 Bft)
22.08.2016 05:00 10,6 C 10,6 C 90 % 1026,0 hPa 0,0 mm 0,7 km/h (0 Bft) S 0,00 h 0,000 mm 0,0 UV-I 0 W/m 9,1 C 1,5 km/h (1 Bft)
22.08.2016 06:00 10,6 C 10,6 C 88 % 1026,6 hPa 0,0 mm 2,6 km/h (1 Bft) S 0,00 h 0,000 mm 0,0 UV-I 14 W/m 8,7 C 4,2 km/h (1 Bft)
22.08.2016 07:00 10,0 C 10,0 C 91 % 1026,9 hPa 0,0 mm 0,7 km/h (0 Bft) S-SW 0,25 h 0,000 mm 0,7 UV-I 67 W/m 8,6 C 1,3 km/h (1 Bft)
22.08.2016 08:00 12,4 C 12,5 C 84 % 1027,3 hPa 0,0 mm 1,7 km/h (1 Bft) SW 1,00 h 0,025 mm 1,4 UV-I 294 W/m 9,8 C 3,2 km/h (1 Bft)
22.08.2016 09:00 14,4 C 14,4 C 76 % 1027,6 hPa 0,0 mm 3,8 km/h (1 Bft) W-NW 1,00 h 0,152 mm 2,7 UV-I 482 W/m 10,1 C 6,4 km/h (2 Bft)
22.08.2016 10:00 15,3 C 15,3 C 72 % 1027,8 hPa 0,0 mm 5,4 km/h (1 Bft) NW 0,70 h 0,254 mm 3,5 UV-I 555 W/m 10,2 C 8,9 km/h (2 Bft)
22.08.2016 11:00 15,6 C 15,7 C 70 % 1028,0 hPa 0,0 mm 5,6 km/h (1 Bft) NW 0,25 h 0,280 mm 3,3 UV-I 410 W/m 10,1 C 9,5 km/h (2 Bft)
22.08.2016 12:00 16,6 C 16,6 C 65 % 1027,9 hPa 0,0 mm 5,5 km/h (1 Bft) W-NW 0,63 h 0,254 mm 4,8 UV-I 696 W/m 9,9 C 9,1 km/h (2 Bft)
22.08.2016 13:00 17,1 C 17,2 C 62 % 1027,7 hPa 0,0 mm 6,1 km/h (2 Bft) W-NW 0,53 h 0,381 mm 5,6 UV-I 627 W/m 9,8 C 10,0 km/h (2 Bft)
22.08.2016 14:00 18,0 C 18,0 C 59 % 1027,5 hPa 0,0 mm 4,6 km/h (1 Bft) W 0,98 h 0,406 mm 6,1 UV-I 827 W/m 9,7 C 7,7 km/h (2 Bft)
22.08.2016 15:00 18,4 C 18,4 C 57 % 1027,1 hPa 0,0 mm 5,6 km/h (1 Bft) W-NW 0,88 h 0,457 mm 4,5 UV-I 644 W/m 9,7 C 9,1 km/h (2 Bft)
22.08.2016 16:00 18,4 C 18,4 C 58 % 1027,3 hPa 0,0 mm 7,0 km/h (2 Bft) W-NW 0,30 h 0,407 mm 2,9 UV-I 231 W/m 10,0 C 11,2 km/h (2 Bft)
22.08.2016 17:00 18,2 C 18,2 C 60 % 1027,5 hPa 0,0 mm 5,4 km/h (1 Bft) NW 0,00 h 0,178 mm 1,3 UV-I 80 W/m 10,2 C 8,5 km/h (2 Bft)
22.08.2016 18:00 17,9 C 17,9 C 61 % 1027,8 hPa 0,0 mm 4,8 km/h (1 Bft) NW 0,00 h 0,076 mm 0,7 UV-I 47 W/m 10,4 C 7,8 km/h (2 Bft)
22.08.2016 19:00 17,1 C 17,2 C 66 % 1028,2 hPa 0,0 mm 1,8 km/h (1 Bft) W 0,23 h 0,051 mm 0,0 UV-I 51 W/m 10,8 C 3,1 km/h (1 Bft)
22.08.2016 20:00 14,1 C 14,2 C 79 % 1028,5 hPa 0,0 mm 2,3 km/h (1 Bft) S 0,07 h 0,050 mm 0,0 UV-I 8 W/m 10,6 C 3,3 km/h (1 Bft)
22.08.2016 21:00 11,9 C 12,0 C 87 % 1028,9 hPa 0,0 mm 0,8 km/h (0 Bft) S-SO 0,00 h 0,000 mm 0,0 UV-I 0 W/m 9,8 C 2,1 km/h (1 Bft)
22.08.2016 22:00 11,5 C 11,5 C 88 % 1028,9 hPa 0,0 mm 0,1 km/h (0 Bft) S-SO 0,00 h 0,000 mm 0,0 UV-I 0 W/m 9,5 C 0,7 km/h (0 Bft)
22.08.2016 23:00 11,1 C 11,1 C 89 % 1028,8 hPa 0,0 mm 0,3 km/h (0 Bft) SW 0,00 h 0,000 mm 0,0 UV-I 0 W/m 9,3 C 1,1 km/h (0 Bft)
23.08.2016 00:00 10,7 C 10,7 C 90 % 1028,5 hPa 0,0 mm 0,4 km/h (0 Bft) W-NW 0,00 h 0,000 mm 0,0 UV-I 0 W/m 9,1 C 1,4 km/h (1 Bft)
23.08.2016 01:00 10,1 C 10,1 C 91 % 1028,5 hPa 0,0 mm 0,2 km/h (0 Bft) SW 0,00 h 0,000 mm 0,0 UV-I 0 W/m 8,6 C 0,7 km/h (0 Bft)
23.08.2016 02:00 9,4 C 9,4 C 93 % 1028,3 hPa 0,0 mm 0,0 km/h (0 Bft) N 0,00 h 0,000 mm 0,0 UV-I 0 W/m 8,2 C 0,0 km/h (0 Bft)
23.08.2016 03:00 9,4 C 9,4 C 92 % 1028,2 hPa 0,0 mm 0,0 km/h (0 Bft) N 0,00 h 0,000 mm 0,0 UV-I 0 W/m 8,2 C 0,0 km/h (0 Bft)
23.08.2016 04:00 9,0 C 9,0 C 93 % 1028,1 hPa 0,0 mm 0,0 km/h (0 Bft) N 0,00 h 0,000 mm 0,0 UV-I 0 W/m 7,9 C 0,0 km/h (0 Bft)
23.08.2016 05:00 8,5 C 8,5 C 94 % 1027,9 hPa 0,0 mm 0,0 km/h (0 Bft) N 0,00 h 0,000 mm 0,0 UV-I 0 W/m 7,5 C 0,0 km/h (0 Bft)
23.08.2016 06:00 8,2 C 8,2 C 95 % 1028,2 hPa 0,0 mm 0,0 km/h (0 Bft) N 0,00 h 0,000 mm 0,0 UV-I 10 W/m 7,4 C 0,0 km/h (0 Bft)
23.08.2016 07:00 9,3 C 9,3 C 94 % 1028,5 hPa 0,0 mm 0,0 km/h (0 Bft) N 0,25 h 0,000 mm 0,7 UV-I 64 W/m 8,3 C 0,0 km/h (0 Bft)
23.08.2016 08:00 12,9 C 13,0 C 87 % 1028,6 hPa 0,0 mm 0,0 km/h (0 Bft) N 1,00 h 0,025 mm 1,4 UV-I 292 W/m 10,8 C 0,0 km/h (0 Bft)
23.08.2016 09:00 15,8 C 15,8 C 79 % 1028,3 hPa 0,0 mm 1,1 km/h (1 Bft) N-NO 1,00 h 0,153 mm 2,8 UV-I 469 W/m 12,2 C 2,0 km/h (1 Bft)
23.08.2016 10:00 18,3 C 18,3 C 71 % 1028,1 hPa 0,0 mm 3,8 km/h (1 Bft) N-NO 1,00 h 0,254 mm 4,2 UV-I 616 W/m 12,9 C 6,0 km/h (2 Bft)
23.08.2016 11:00 19,5 C 19,5 C 65 % 1027,9 hPa 0,0 mm 5,8 km/h (2 Bft) NO 1,00 h 0,355 mm 5,4 UV-I 722 W/m 12,8 C 9,3 km/h (2 Bft)
23.08.2016 12:00 20,4 C 20,5 C 60 % 1027,5 hPa 0,0 mm 6,5 km/h (2 Bft) NO 1,00 h 0,432 mm 6,1 UV-I 781 W/m 12,5 C 11,2 km/h (2 Bft)
23.08.2016 13:00 21,3 C 21,3 C 60 % 1027,0 hPa 0,0 mm 7,4 km/h (2 Bft) N-NO 1,00 h 0,483 mm 6,5 UV-I 796 W/m 13,3 C 11,9 km/h (2 Bft)
23.08.2016 14:00 21,9 C 22,0 C 59 % 1026,4 hPa 0,0 mm 6,0 km/h (2 Bft) O-NO 1,00 h 0,508 mm 5,9 UV-I 757 W/m 13,6 C 10,5 km/h (2 Bft)
23.08.2016 15:00 22,5 C 22,5 C 59 % 1025,9 hPa 0,0 mm 5,6 km/h (1 Bft) O-NO 1,00 h 0,482 mm 4,7 UV-I 670 W/m 14,0 C 9,5 km/h (2 Bft)
23.08.2016 16:00 22,4 C 22,4 C 60 % 1025,5 hPa 0,0 mm 5,7 km/h (1 Bft) NO 0,30 h 0,432 mm 3,5 UV-I 204 W/m 14,2 C 9,3 km/h (2 Bft)
23.08.2016 17:00 22,2 C 22,2 C 61 % 1025,2 hPa 0,0 mm 4,1 km/h (1 Bft) O-NO 0,00 h 0,153 mm 1,5 UV-I 38 W/m 14,2 C 7,2 km/h (2 Bft)
23.08.2016 18:00 21,8 C 21,8 C 62 % 1025,0 hPa 0,0 mm 4,8 km/h (1 Bft) O-NO 0,00 h 0,050 mm 0,0 UV-I 29 W/m 14,3 C 7,5 km/h (2 Bft)
23.08.2016 19:00 20,3 C 20,3 C 69 % 1024,9 hPa 0,0 mm 2,2 km/h (1 Bft) O-SO 0,00 h 0,051 mm 0,0 UV-I 32 W/m 14,4 C 3,8 km/h (1 Bft)
23.08.2016 20:00 17,7 C 17,7 C 77 % 1025,3 hPa 0,0 mm 2,2 km/h (1 Bft) SO 0,00 h 0,026 mm 0,0 UV-I 6 W/m 13,6 C 3,5 km/h (1 Bft)
23.08.2016 21:00 15,6 C 15,7 C 84 % 1025,5 hPa 0,0 mm 0,3 km/h (0 Bft) SO 0,00 h 0,000 mm 0,0 UV-I 0 W/m 13,0 C 0,6 km/h (0 Bft)
23.08.2016 22:00 14,1 C 14,1 C 89 % 1025,4 hPa 0,0 mm 0,0 km/h (0 Bft) N 0,00 h 0,025 mm 0,0 UV-I 0 W/m 12,3 C 0,1 km/h (0 Bft)
23.08.2016 23:00 13,1 C 13,1 C 91 % 1025,1 hPa 0,0 mm 0,0 km/h (0 Bft) N 0,00 h 0,000 mm 0,0 UV-I 0 W/m 11,7 C 0,0 km/h (0 Bft)
24.08.2016 00:00 12,4 C 12,4 C 93 % 1024,9 hPa 0,0 mm 0,0 km/h (0 Bft) N 0,00 h 0,000 mm 0,0 UV-I 0 W/m 11,3 C 0,0 km/h (0 Bft)
24.08.2016 01:00 11,7 C 11,8 C 94 % 1024,3 hPa 0,0 mm 0,0 km/h (0 Bft) N 0,00 h 0,000 mm 0,0 UV-I 0 W/m 10,8 C 0,0 km/h (0 Bft)
24.08.2016 02:00 11,6 C 11,6 C 95 % 1023,8 hPa 0,0 mm 0,0 km/h (0 Bft) N 0,00 h 0,000 mm 0,0 UV-I 0 W/m 10,8 C 0,0 km/h (0 Bft)
24.08.2016 03:00 10,7 C 10,8 C 95 % 1023,6 hPa 0,0 mm 0,0 km/h (0 Bft) N 0,00 h 0,000 mm 0,0 UV-I 0 W/m 10,0 C 0,0 km/h (0 Bft)
24.08.2016 04:00 10,5 C 10,5 C 95 % 1023,2 hPa 0,0 mm 0,0 km/h (0 Bft) N 0,00 h 0,000 mm 0,0 UV-I 0 W/m 9,7 C 0,0 km/h (0 Bft)
24.08.2016 05:00 10,4 C 10,4 C 96 % 1022,9 hPa 0,0 mm 0,0 km/h (0 Bft) N 0,00 h 0,000 mm 0,0 UV-I 0 W/m 9,8 C 0,0 km/h (0 Bft)
24.08.2016 06:00 10,0 C 10,0 C 96 % 1022,7 hPa 0,0 mm 0,0 km/h (0 Bft) N 0,00 h 0,000 mm 0,0 UV-I 9 W/m 9,3 C 0,0 km/h (0 Bft)
24.08.2016 07:00 10,9 C 10,9 C 96 % 1022,8 hPa 0,0 mm 0,0 km/h (0 Bft) N 0,25 h 0,000 mm 0,6 UV-I 66 W/m 10,3 C 0,0 km/h (0 Bft)
24.08.2016 08:00 14,7 C 14,7 C 91 % 1022,9 hPa 0,0 mm 1,3 km/h (1 Bft) N-NO 1,00 h 0,025 mm 1,4 UV-I 298 W/m 13,3 C 2,3 km/h (1 Bft)
24.08.2016 09:00 17,6 C 17,7 C 85 % 1022,7 hPa 0,0 mm 1,6 km/h (1 Bft) N 1,00 h 0,153 mm 2,8 UV-I 470 W/m 15,0 C 3,0 km/h (1 Bft)
24.08.2016 10:00 20,2 C 20,2 C 76 % 1022,5 hPa 0,0 mm 4,8 km/h (1 Bft) NO 1,00 h 0,254 mm 4,2 UV-I 618 W/m 15,9 C 7,6 km/h (2 Bft)
24.08.2016 11:00 21,5 C 21,5 C 73 % 1022,2 hPa 0,0 mm 6,2 km/h (2 Bft) NO 1,00 h 0,381 mm 5,5 UV-I 724 W/m 16,4 C 10,3 km/h (2 Bft)
24.08.2016 12:00 22,4 C 22,5 C 69 % 1022,0 hPa 0,0 mm 6,9 km/h (2 Bft) NO 1,00 h 0,457 mm 6,3 UV-I 786 W/m 16,4 C 11,6 km/h (2 Bft)
24.08.2016 13:00 23,5 C 23,6 C 64 % 1021,7 hPa 0,0 mm 7,5 km/h (2 Bft) NO 1,00 h 0,508 mm 6,5 UV-I 798 W/m 16,3 C 12,5 km/h (3 Bft)
24.08.2016 14:00 24,1 C 24,1 C 59 % 1021,5 hPa 0,0 mm 7,5 km/h (2 Bft) O-NO 1,00 h 0,533 mm 6,0 UV-I 758 W/m 15,5 C 13,1 km/h (3 Bft)
24.08.2016 15:00 24,4 C 24,4 C 58 % 1021,3 hPa 0,0 mm 6,7 km/h (2 Bft) NO 1,00 h 0,508 mm 4,7 UV-I 669 W/m 15,6 C 11,9 km/h (2 Bft)
24.08.2016 16:00 24,1 C 24,1 C 58 % 1021,1 hPa 0,0 mm 6,0 km/h (2 Bft) O-NO 0,33 h 0,458 mm 3,5 UV-I 212 W/m 15,4 C 10,4 km/h (2 Bft)
24.08.2016 17:00 23,5 C 23,6 C 58 % 1021,1 hPa 0,0 mm 6,2 km/h (2 Bft) NO 0,00 h 0,177 mm 1,7 UV-I 31 W/m 14,8 C 11,3 km/h (2 Bft)
24.08.2016 18:00 22,7 C 22,7 C 62 % 1020,8 hPa 0,0 mm 4,9 km/h (1 Bft) O-NO 0,00 h 0,077 mm 0,5 UV-I 26 W/m 14,9 C 8,9 km/h (2 Bft)
24.08.2016 19:00 20,9 C 20,9 C 69 % 1020,6 hPa 0,0 mm 2,2 km/h (1 Bft) SO 0,00 h 0,050 mm 0,0 UV-I 28 W/m 14,9 C 4,1 km/h (1 Bft)
24.08.2016 20:00 18,2 C 18,3 C 78 % 1020,8 hPa 0,0 mm 2,4 km/h (1 Bft) S-SO 0,00 h 0,026 mm 0,0 UV-I 5 W/m 14,2 C 4,1 km/h (1 Bft)
24.08.2016 21:00 16,8 C 16,9 C 82 % 1020,8 hPa 0,0 mm 1,0 km/h (0 Bft) SO 0,00 h 0,025 mm 0,0 UV-I 0 W/m 13,8 C 1,7 km/h (1 Bft)
24.08.2016 22:00 14,7 C 14,7 C 89 % 1020,5 hPa 0,0 mm 0,0 km/h (0 Bft) N 0,00 h 0,026 mm 0,0 UV-I 0 W/m 12,9 C 0,0 km/h (0 Bft)
24.08.2016 23:00 13,8 C 13,8 C 91 % 1020,2 hPa 0,0 mm 0,2 km/h (0 Bft) SO 0,00 h 0,000 mm 0,0 UV-I 0 W/m 12,3 C 0,6 km/h (0 Bft)
25.08.2016 00:00 12,7 C 12,7 C 93 % 1019,8 hPa 0,0 mm 0,0 km/h (0 Bft) N 0,00 h 0,000 mm 0,0 UV-I 0 W/m 11,6 C 0,0 km/h (0 Bft)
25.08.2016 01:00 12,3 C 12,3 C 94 % 1019,4 hPa 0,0 mm 0,6 km/h (0 Bft) S-SO 0,00 h 0,000 mm 0,0 UV-I 0 W/m 11,3 C 1,3 km/h (1 Bft)
25.08.2016 02:00 11,6 C 11,6 C 95 % 1018,9 hPa 0,0 mm 0,1 km/h (0 Bft) S 0,00 h 0,000 mm 0,0 UV-I 0 W/m 10,8 C 0,3 km/h (0 Bft)
25.08.2016 03:00 10,8 C 10,9 C 95 % 1018,7 hPa 0,0 mm 0,0 km/h (0 Bft) N 0,00 h 0,000 mm 0,0 UV-I 0 W/m 10,1 C 0,1 km/h (0 Bft)
25.08.2016 04:00 10,2 C 10,3 C 96 % 1018,4 hPa 0,0 mm 0,0 km/h (0 Bft) N 0,00 h 0,000 mm 0,0 UV-I 0 W/m 9,6 C 0,0 km/h (0 Bft)
25.08.2016 05:00 9,5 C 9,5 C 96 % 1018,1 hPa 0,0 mm 0,1 km/h (0 Bft) S 0,00 h 0,000 mm 0,0 UV-I 0 W/m 8,8 C 0,2 km/h (0 Bft)
25.08.2016 06:00 8,9 C 8,9 C 95 % 1018,1 hPa 0,0 mm 0,0 km/h (0 Bft) N 0,00 h 0,000 mm 0,0 UV-I 9 W/m 8,2 C 0,1 km/h (0 Bft)
25.08.2016 07:00 9,8 C 9,8 C 96 % 1018,3 hPa 0,0 mm 0,0 km/h (0 Bft) N 0,25 h 0,000 mm 0,6 UV-I 66 W/m 9,2 C 0,1 km/h (0 Bft)
25.08.2016 08:00 14,0 C 14,0 C 93 % 1018,2 hPa 0,0 mm 0,1 km/h (0 Bft) S 1,00 h 0,025 mm 1,3 UV-I 299 W/m 12,8 C 0,3 km/h (0 Bft)
25.08.2016 09:00 17,2 C 17,2 C 84 % 1018,3 hPa 0,0 mm 0,8 km/h (0 Bft) SO 1,00 h 0,153 mm 2,8 UV-I 475 W/m 14,5 C 1,8 km/h (1 Bft)
25.08.2016 10:00 20,1 C 20,1 C 79 % 1018,4 hPa 0,0 mm 1,8 km/h (1 Bft) O 1,00 h 0,254 mm 4,2 UV-I 622 W/m 16,4 C 3,2 km/h (1 Bft)
25.08.2016 11:00 23,0 C 23,1 C 72 % 1018,3 hPa 0,0 mm 5,6 km/h (1 Bft) NW 1,00 h 0,355 mm 5,4 UV-I 725 W/m 17,7 C 9,2 km/h (2 Bft)
25.08.2016 12:00 24,2 C 24,2 C 67 % 1017,9 hPa 0,0 mm 4,1 km/h (1 Bft) NW 1,00 h 0,458 mm 6,3 UV-I 785 W/m 17,8 C 6,5 km/h (2 Bft)
25.08.2016 13:00 24,8 C 24,9 C 65 % 1017,8 hPa 0,0 mm 3,7 km/h (1 Bft) N-NW 1,00 h 0,508 mm 6,4 UV-I 794 W/m 17,9 C 5,9 km/h (2 Bft)
25.08.2016 14:00 25,4 C 25,4 C 64 % 1017,6 hPa 0,0 mm 4,1 km/h (1 Bft) N-NO 1,00 h 0,508 mm 5,8 UV-I 749 W/m 18,1 C 6,4 km/h (2 Bft)
25.08.2016 15:00 25,8 C 25,8 C 64 % 1017,4 hPa 0,0 mm 3,5 km/h (1 Bft) N-NW 1,00 h 0,482 mm 4,6 UV-I 660 W/m 18,5 C 5,6 km/h (1 Bft)
25.08.2016 16:00 25,6 C 25,7 C 63 % 1017,1 hPa 0,0 mm 3,7 km/h (1 Bft) NW 0,32 h 0,432 mm 3,6 UV-I 206 W/m 17,9 C 5,7 km/h (1 Bft)
25.08.2016 17:00 25,3 C 25,3 C 61 % 1016,8 hPa 0,0 mm 3,1 km/h (1 Bft) NO 0,00 h 0,152 mm 0,0 UV-I 33 W/m 17,1 C 5,1 km/h (1 Bft)
25.08.2016 18:00 24,1 C 24,2 C 65 % 1016,6 hPa 0,0 mm 1,7 km/h (1 Bft) O 0,00 h 0,051 mm 0,5 UV-I 29 W/m 17,0 C 3,3 km/h (1 Bft)
25.08.2016 19:00 22,1 C 22,2 C 73 % 1016,6 hPa 0,0 mm 1,2 km/h (1 Bft) O 0,00 h 0,026 mm 0,5 UV-I 30 W/m 17,0 C 2,2 km/h (1 Bft)
25.08.2016 20:00 19,2 C 19,3 C 83 % 1017,1 hPa 0,0 mm 0,4 km/h (0 Bft) O 0,00 h 0,025 mm 0,0 UV-I 5 W/m 16,2 C 0,9 km/h (0 Bft)
25.08.2016 21:00 16,7 C 16,8 C 89 % 1017,3 hPa 0,0 mm 0,1 km/h (0 Bft) O 0,00 h 0,000 mm 0,0 UV-I 0 W/m 14,9 C 0,3 km/h (0 Bft)
25.08.2016 22:00 15,8 C 15,8 C 92 % 1017,1 hPa 0,0 mm 0,0 km/h (0 Bft) N 0,00 h 0,000 mm 0,0 UV-I 0 W/m 14,4 C 0,2 km/h (0 Bft)
25.08.2016 23:00 15,2 C 15,2 C 94 % 1016,9 hPa 0,0 mm 0,2 km/h (0 Bft) O 0,00 h 0,000 mm 0,0 UV-I 0 W/m 14,2 C 0,7 km/h (0 Bft)
26.08.2016 00:00 14,9 C 14,9 C 95 % 1016,7 hPa 0,0 mm 0,2 km/h (0 Bft) O 0,00 h 0,000 mm 0,0 UV-I 0 W/m 14,1 C 0,6 km/h (0 Bft)
26.08.2016 01:00 14,8 C 14,8 C 96 % 1016,5 hPa 0,0 mm 0,1 km/h (0 Bft) O 0,00 h 0,000 mm 0,0 UV-I 0 W/m 14,1 C 0,3 km/h (0 Bft)
26.08.2016 02:00 14,4 C 14,5 C 96 % 1016,2 hPa 0,0 mm 0,0 km/h (0 Bft) N 0,00 h 0,000 mm 0,0 UV-I 0 W/m 13,8 C 0,0 km/h (0 Bft)
26.08.2016 03:00 14,0 C 14,1 C 96 % 1016,5 hPa 0,0 mm 0,0 km/h (0 Bft) O 0,00 h 0,000 mm 0,0 UV-I 0 W/m 13,5 C 0,1 km/h (0 Bft)
26.08.2016 04:00 14,2 C 14,3 C 97 % 1016,6 hPa 0,0 mm 0,1 km/h (0 Bft) O 0,00 h 0,000 mm 0,0 UV-I 0 W/m 13,8 C 0,2 km/h (0 Bft)
26.08.2016 05:00 14,4 C 14,4 C 97 % 1016,8 hPa 0,0 mm 0,0 km/h (0 Bft) N 0,00 h 0,000 mm 0,0 UV-I 0 W/m 13,9 C 0,1 km/h (0 Bft)
26.08.2016 06:00 14,7 C 14,7 C 97 % 1017,0 hPa 0,0 mm 0,0 km/h (0 Bft) N 0,00 h 0,000 mm 0,0 UV-I 9 W/m 14,2 C 0,1 km/h (0 Bft)
26.08.2016 07:00 15,4 C 15,4 C 97 % 1017,1 hPa 0,0 mm 0,1 km/h (0 Bft) N 0,27 h 0,000 mm 0,6 UV-I 63 W/m 14,8 C 0,5 km/h (0 Bft)
26.08.2016 08:00 18,9 C 18,9 C 91 % 1016,9 hPa 0,0 mm 0,3 km/h (0 Bft) O 1,00 h 0,025 mm 1,3 UV-I 272 W/m 17,4 C 0,9 km/h (0 Bft)
26.08.2016 09:00 21,9 C 21,9 C 84 % 1016,9 hPa 0,0 mm 0,4 km/h (0 Bft) O 1,00 h 0,153 mm 2,6 UV-I 454 W/m 19,1 C 1,1 km/h (0 Bft)
26.08.2016 10:00 25,3 C 25,3 C 69 % 1017,0 hPa 0,0 mm 5,1 km/h (1 Bft) NW 1,00 h 0,279 mm 4,0 UV-I 598 W/m 19,1 C 8,0 km/h (2 Bft)
26.08.2016 11:00 26,2 C 26,2 C 64 % 1017,2 hPa 0,0 mm 6,8 km/h (2 Bft) W-NW 1,00 h 0,407 mm 5,2 UV-I 703 W/m 18,9 C 11,6 km/h (2 Bft)
26.08.2016 12:00 27,0 C 27,1 C 62 % 1017,0 hPa 0,0 mm 6,8 km/h (2 Bft) W 1,00 h 0,482 mm 6,0 UV-I 766 W/m 19,0 C 10,8 km/h (2 Bft)
26.08.2016 13:00 27,8 C 27,8 C 57 % 1016,9 hPa 0,0 mm 7,7 km/h (2 Bft) W-NW 1,00 h 0,534 mm 6,2 UV-I 779 W/m 18,4 C 12,4 km/h (3 Bft)
26.08.2016 14:00 28,0 C 28,1 C 53 % 1016,7 hPa 0,0 mm 6,2 km/h (2 Bft) W-NW 1,00 h 0,558 mm 5,7 UV-I 741 W/m 17,7 C 10,4 km/h (2 Bft)
26.08.2016 15:00 28,3 C 28,3 C 51 % 1016,7 hPa 0,0 mm 5,4 km/h (1 Bft) NW 1,00 h 0,534 mm 4,4 UV-I 646 W/m 17,1 C 8,5 km/h (2 Bft)
26.08.2016 16:00 28,1 C 28,1 C 51 % 1016,6 hPa 0,0 mm 4,1 km/h (1 Bft) W-NW 0,32 h 0,457 mm 3,3 UV-I 206 W/m 16,9 C 6,4 km/h (2 Bft)
26.08.2016 17:00 27,7 C 27,7 C 51 % 1016,5 hPa 0,0 mm 3,7 km/h (1 Bft) W-NW 0,00 h 0,178 mm 1,5 UV-I 38 W/m 16,8 C 5,7 km/h (1 Bft)
26.08.2016 18:00 26,4 C 26,4 C 59 % 1016,5 hPa 0,0 mm 1,4 km/h (1 Bft) N-NW 0,00 h 0,076 mm 0,5 UV-I 33 W/m 17,6 C 2,8 km/h (1 Bft)
26.08.2016 19:00 24,7 C 24,8 C 69 % 1016,6 hPa 0,0 mm 1,5 km/h (1 Bft) O 0,02 h 0,051 mm 0,0 UV-I 27 W/m 18,6 C 2,6 km/h (1 Bft)
26.08.2016 20:00 21,0 C 21,0 C 82 % 1017,0 hPa 0,0 mm 0,9 km/h (0 Bft) O-SO 0,00 h 0,025 mm 0,0 UV-I 5 W/m 17,8 C 1,8 km/h (1 Bft)
26.08.2016 21:00 19,4 C 19,5 C 86 % 1017,2 hPa 0,0 mm 1,1 km/h (1 Bft) S-SO 0,00 h 0,000 mm 0,0 UV-I 0 W/m 17,0 C 1,9 km/h (1 Bft)
26.08.2016 22:00 18,6 C 18,6 C 89 % 1017,4 hPa 0,0 mm 0,2 km/h (0 Bft) NO 0,00 h 0,026 mm 0,0 UV-I 0 W/m 16,8 C 0,4 km/h (0 Bft)
26.08.2016 23:00 17,5 C 17,5 C 92 % 1017,4 hPa 0,0 mm 0,1 km/h (0 Bft) N 0,00 h 0,000 mm 0,0 UV-I 0 W/m 16,1 C 0,4 km/h (0 Bft)
27.08.2016 00:00 16,7 C 16,7 C 93 % 1017,3 hPa 0,0 mm 0,0 km/h (0 Bft) N 0,00 h 0,000 mm 0,0 UV-I 0 W/m 15,6 C 0,2 km/h (0 Bft)
27.08.2016 01:00 16,5 C 16,5 C 93 % 1017,4 hPa 0,0 mm 0,0 km/h (0 Bft) N 0,00 h 0,000 mm 0,0 UV-I 0 W/m 15,3 C 0,1 km/h (0 Bft)
27.08.2016 02:00 16,2 C 16,2 C 94 % 1017,3 hPa 0,0 mm 0,1 km/h (0 Bft) N-NO 0,00 h 0,000 mm 0,0 UV-I 0 W/m 15,2 C 0,4 km/h (0 Bft)
27.08.2016 03:00 15,8 C 15,8 C 94 % 1017,4 hPa 0,0 mm 0,0 km/h (0 Bft) N 0,00 h 0,000 mm 0,0 UV-I 0 W/m 14,8 C 0,1 km/h (0 Bft)
27.08.2016 04:00 15,3 C 15,3 C 95 % 1017,2 hPa 0,0 mm 0,0 km/h (0 Bft) N 0,00 h 0,000 mm 0,0 UV-I 0 W/m 14,5 C 0,0 km/h (0 Bft)
27.08.2016 05:00 14,8 C 14,8 C 96 % 1016,9 hPa 0,0 mm 0,0 km/h (0 Bft) N 0,00 h 0,000 mm 0,0 UV-I 0 W/m 14,1 C 0,0 km/h (0 Bft)
27.08.2016 06:00 14,6 C 14,6 C 96 % 1016,7 hPa 0,0 mm 0,0 km/h (0 Bft) N 0,00 h 0,000 mm 0,0 UV-I 9 W/m 14,0 C 0,1 km/h (0 Bft)
27.08.2016 07:00 15,1 C 15,1 C 96 % 1016,7 hPa 0,0 mm 0,1 km/h (0 Bft) NO 0,27 h 0,000 mm 0,6 UV-I 60 W/m 14,4 C 0,4 km/h (0 Bft)
27.08.2016 08:00 18,4 C 18,4 C 90 % 1016,8 hPa 0,0 mm 0,2 km/h (0 Bft) NO 1,00 h 0,025 mm 1,2 UV-I 261 W/m 16,7 C 0,5 km/h (0 Bft)
27.08.2016 09:00 21,9 C 22,0 C 82 % 1016,9 hPa 0,0 mm 1,1 km/h (0 Bft) W-NW 1,00 h 0,153 mm 2,5 UV-I 438 W/m 18,7 C 2,0 km/h (1 Bft)
27.08.2016 10:00 23,9 C 24,0 C 75 % 1016,9 hPa 0,0 mm 2,2 km/h (1 Bft) W-NW 1,00 h 0,254 mm 3,9 UV-I 578 W/m 19,3 C 3,8 km/h (1 Bft)
27.08.2016 11:00 25,1 C 25,1 C 72 % 1016,9 hPa 0,0 mm 3,6 km/h (1 Bft) W 1,00 h 0,355 mm 5,0 UV-I 683 W/m 19,8 C 5,9 km/h (2 Bft)
27.08.2016 12:00 25,8 C 25,9 C 69 % 1016,6 hPa 0,0 mm 3,7 km/h (1 Bft) NO 1,00 h 0,432 mm 5,8 UV-I 746 W/m 19,7 C 5,9 km/h (2 Bft)
27.08.2016 13:00 26,7 C 26,7 C 67 % 1016,3 hPa 0,0 mm 4,3 km/h (1 Bft) N-NO 1,00 h 0,483 mm 5,9 UV-I 753 W/m 20,1 C 7,3 km/h (2 Bft)
27.08.2016 14:00 27,2 C 27,2 C 66 % 1016,0 hPa 0,0 mm 5,0 km/h (1 Bft) O-NO 1,00 h 0,508 mm 5,3 UV-I 704 W/m 20,3 C 7,7 km/h (2 Bft)
27.08.2016 15:00 27,4 C 27,4 C 66 % 1015,7 hPa 0,0 mm 4,9 km/h (1 Bft) N-NO 0,93 h 0,482 mm 4,0 UV-I 596 W/m 20,4 C 8,3 km/h (2 Bft)
27.08.2016 16:00 27,1 C 27,1 C 66 % 1015,5 hPa 0,0 mm 4,3 km/h (1 Bft) N-NO 0,32 h 0,407 mm 2,3 UV-I 222 W/m 20,1 C 6,5 km/h (2 Bft)
27.08.2016 17:00 26,6 C 26,7 C 65 % 1015,4 hPa 0,0 mm 3,5 km/h (1 Bft) O-NO 0,00 h 0,152 mm 1,3 UV-I 63 W/m 19,5 C 5,6 km/h (1 Bft)
27.08.2016 18:00 25,8 C 25,8 C 66 % 1015,2 hPa 0,0 mm 2,0 km/h (1 Bft) O-NO 0,00 h 0,076 mm 0,9 UV-I 60 W/m 18,8 C 3,7 km/h (1 Bft)
27.08.2016 19:00 24,1 C 24,1 C 72 % 1015,2 hPa 0,0 mm 0,9 km/h (0 Bft) O 0,38 h 0,051 mm 0,0 UV-I 42 W/m 18,7 C 1,7 km/h (1 Bft)
27.08.2016 20:00 21,7 C 21,8 C 78 % 1015,3 hPa 0,0 mm 1,1 km/h (0 Bft) O 0,00 h 0,026 mm 0,0 UV-I 12 W/m 17,7 C 1,9 km/h (1 Bft)
27.08.2016 21:00 20,3 C 20,3 C 84 % 1015,6 hPa 0,0 mm 1,5 km/h (1 Bft) S-SO 0,00 h 0,000 mm 0,0 UV-I 0 W/m 17,6 C 2,7 km/h (1 Bft)
27.08.2016 22:00 19,3 C 19,4 C 89 % 1015,5 hPa 0,0 mm 0,1 km/h (0 Bft) S-SO 0,00 h 0,025 mm 0,0 UV-I 0 W/m 17,5 C 0,4 km/h (0 Bft)
27.08.2016 23:00 18,7 C 18,8 C 91 % 1015,5 hPa 0,0 mm 0,3 km/h (0 Bft) S-SO 0,00 h 0,000 mm 0,0 UV-I 0 W/m 17,2 C 0,5 km/h (0 Bft)
28.08.2016 00:00 18,2 C 18,2 C 91 % 1015,5 hPa 0,0 mm 0,1 km/h (0 Bft) S-SO 0,00 h 0,000 mm 0,0 UV-I 0 W/m 16,8 C 0,2 km/h (0 Bft)
28.08.2016 01:00 18,2 C 18,2 C 92 % 1015,4 hPa 0,0 mm 0,6 km/h (0 Bft) S 0,00 h 0,000 mm 0,0 UV-I 0 W/m 16,8 C 1,2 km/h (1 Bft)
28.08.2016 02:00 17,4 C 17,4 C 92 % 1015,4 hPa 0,0 mm 0,4 km/h (0 Bft) S 0,00 h 0,000 mm 0,0 UV-I 0 W/m 16,1 C 1,0 km/h (0 Bft)
28.08.2016 03:00 17,0 C 17,0 C 93 % 1015,3 hPa 0,0 mm 0,6 km/h (0 Bft) SO 0,00 h 0,000 mm 0,0 UV-I 0 W/m 15,8 C 1,4 km/h (1 Bft)
28.08.2016 04:00 16,4 C 16,5 C 94 % 1015,3 hPa 0,0 mm 0,3 km/h (0 Bft) SO 0,00 h 0,000 mm 0,0 UV-I 0 W/m 15,4 C 0,7 km/h (0 Bft)
28.08.2016 05:00 16,0 C 16,1 C 95 % 1015,4 hPa 0,0 mm 0,4 km/h (0 Bft) SW 0,00 h 0,000 mm 0,0 UV-I 0 W/m 15,2 C 1,0 km/h (0 Bft)
28.08.2016 06:00 16,2 C 16,2 C 94 % 1015,6 hPa 0,0 mm 0,7 km/h (0 Bft) S 0,05 h 0,000 mm 0,0 UV-I 14 W/m 15,1 C 1,5 km/h (1 Bft)
28.08.2016 07:00 17,2 C 17,3 C 91 % 1015,8 hPa 0,0 mm 0,3 km/h (0 Bft) S-SO 0,25 h 0,000 mm 0,5 UV-I 67 W/m 15,7 C 0,9 km/h (0 Bft)
28.08.2016 08:00 20,3 C 20,3 C 83 % 1015,8 hPa 0,0 mm 1,1 km/h (0 Bft) SO 0,72 h 0,025 mm 1,1 UV-I 207 W/m 17,3 C 1,9 km/h (1 Bft)
28.08.2016 09:00 21,7 C 21,8 C 81 % 1016,1 hPa 0,0 mm 0,1 km/h (0 Bft) SO 0,43 h 0,127 mm 2,0 UV-I 279 W/m 18,3 C 0,4 km/h (0 Bft)
28.08.2016 10:00 24,2 C 24,2 C 72 % 1016,4 hPa 0,0 mm 2,2 km/h (1 Bft) W-NW 0,27 h 0,178 mm 2,5 UV-I 341 W/m 18,9 C 3,5 km/h (1 Bft)
28.08.2016 11:00 24,5 C 24,5 C 67 % 1016,6 hPa 0,0 mm 5,3 km/h (1 Bft) NW 0,63 h 0,229 mm 4,2 UV-I 575 W/m 17,9 C 8,4 km/h (2 Bft)
28.08.2016 12:00 25,7 C 25,7 C 60 % 1016,3 hPa 0,0 mm 6,8 km/h (2 Bft) NW 0,98 h 0,381 mm 5,5 UV-I 729 W/m 17,4 C 10,1 km/h (2 Bft)
28.08.2016 13:00 26,3 C 26,3 C 58 % 1015,8 hPa 0,0 mm 6,9 km/h (2 Bft) W 0,93 h 0,508 mm 5,5 UV-I 703 W/m 17,3 C 10,8 km/h (2 Bft)
28.08.2016 14:00 27,1 C 27,1 C 54 % 1015,2 hPa 0,0 mm 6,2 km/h (2 Bft) W-NW 1,00 h 0,482 mm 5,2 UV-I 708 W/m 16,8 C 10,0 km/h (2 Bft)
28.08.2016 15:00 27,4 C 27,4 C 51 % 1014,8 hPa 0,0 mm 5,7 km/h (1 Bft) W-NW 1,00 h 0,508 mm 4,1 UV-I 623 W/m 16,4 C 9,0 km/h (2 Bft)
28.08.2016 16:00 27,2 C 27,2 C 51 % 1014,6 hPa 0,0 mm 4,8 km/h (1 Bft) W-NW 0,28 h 0,458 mm 2,3 UV-I 217 W/m 16,2 C 7,7 km/h (2 Bft)
28.08.2016 17:00 26,5 C 26,6 C 53 % 1014,4 hPa 0,0 mm 3,4 km/h (1 Bft) W-SW 0,00 h 0,177 mm 1,4 UV-I 56 W/m 16,2 C 5,6 km/h (1 Bft)
28.08.2016 18:00 25,2 C 25,3 C 59 % 1014,0 hPa 0,0 mm 0,4 km/h (0 Bft) W 0,00 h 0,077 mm 0,6 UV-I 48 W/m 16,7 C 1,4 km/h (1 Bft)
28.08.2016 19:00 22,7 C 22,7 C 70 % 1013,9 hPa 0,0 mm 2,5 km/h (1 Bft) S 0,00 h 0,050 mm 0,0 UV-I 20 W/m 16,9 C 3,6 km/h (1 Bft)
28.08.2016 20:00 20,8 C 20,9 C 75 % 1014,5 hPa 0,0 mm 1,9 km/h (1 Bft) S 0,00 h 0,026 mm 0,0 UV-I 5 W/m 16,3 C 3,0 km/h (1 Bft)
28.08.2016 21:00 20,5 C 20,5 C 75 % 1015,0 hPa 0,0 mm 2,4 km/h (1 Bft) S-SO 0,00 h 0,000 mm 0,0 UV-I 0 W/m 16,0 C 3,8 km/h (1 Bft)
28.08.2016 22:00 20,3 C 20,3 C 74 % 1015,4 hPa 0,0 mm 2,9 km/h (1 Bft) S-SO 0,00 h 0,025 mm 0,0 UV-I 0 W/m 15,5 C 4,5 km/h (1 Bft)
28.08.2016 23:00 18,9 C 18,9 C 78 % 1015,4 hPa 0,0 mm 1,0 km/h (0 Bft) S-SO 0,00 h 0,026 mm 0,0 UV-I 0 W/m 15,0 C 1,9 km/h (1 Bft)
Min-Datum _ 23.08.16 23.08.16 26.08.16 28.08.16 - 28.08.16 - - - - - 23.08.16 28.08.16
_ Min-Zeit 06:41 06:39 16:39 19:04 - 23:22 - - - - - 05:22 23:22
Minimum _ 7,9 C 8,0 C 47 % 1013,6 hPa - 0,0 km/h (0 Bft) - - - - - 7,2 C 0,0 km/h (0 Bft)
Max-Datum _ 26.08.16 26.08.16 27.08.16 22.08.16 28.08.16 28.08.16 - 28.08.16 26.08.16 22.08.16 22.08.16 27.08.16 24.08.16
_ Max-Zeit 16:01 16:01 07:15 23:11 23:00 12:54 - 15:03 14:01 12:34 12:36 13:22 15:44
Maximum _ 28,6 C 28,6 C 97 % 1029,0 hPa 0,0 mm 15,2 km/h
NW (3 Bft)
- 0,03 h 0,558 mm 7,2 UV-I 1037 W/m 21,3 C 20,9 km/h
O-NO (4 Bft)
Durchschnitt _ 18,3 C 18,3 C 79 % 1020,4 hPa #0,0 mm 2,3 km/h (1 Bft) W-NW #56:35 h #24,080 mm 3,4 UV-I 218 W/m 14,2 C 3,9 km/h (1 Bft)